createdAt,value
2018-02-13T00:00:11.863Z,17.87
2018-02-13T00:02:40.071Z,19.42
2018-02-13T00:05:12.371Z,18.12
2018-02-13T00:07:39.817Z,16.25
2018-02-13T00:10:07.288Z,17.10
2018-02-13T00:12:34.754Z,19.37
2018-02-13T00:15:02.191Z,23.62
2018-02-13T00:17:29.733Z,19.83
2018-02-13T00:19:57.175Z,19.77
2018-02-13T00:22:24.640Z,18.17
2018-02-13T00:24:52.080Z,21.30
2018-02-13T00:27:20.311Z,20.50
2018-02-13T00:29:49.291Z,20.75
2018-02-13T00:32:20.650Z,19.87
2018-02-13T00:34:48.238Z,17.17
2018-02-13T00:37:16.452Z,20.60
2018-02-13T00:39:43.908Z,18.12
2018-02-13T00:42:11.350Z,19.15
2018-02-13T00:44:38.899Z,22.33
2018-02-13T00:47:22.076Z,19.48
2018-02-13T00:49:49.523Z,17.87
2018-02-13T00:52:16.970Z,19.75
2018-02-13T00:54:44.472Z,16.48
2018-02-13T00:57:11.933Z,24.45
2018-02-13T00:59:39.363Z,17.25
2018-02-13T01:02:15.948Z,22.48
2018-02-13T01:04:43.390Z,19.27
2018-02-13T01:07:10.902Z,21.58
2018-02-13T01:09:39.106Z,19.15
2018-02-13T01:12:06.655Z,16.08
2018-02-13T01:14:34.094Z,17.52
2018-02-13T01:17:02.292Z,15.52
2018-02-13T01:19:29.828Z,14.82
2018-02-13T01:21:58.032Z,17.87
2018-02-13T01:24:25.498Z,16.35
2018-02-13T01:26:52.962Z,14.10
2018-02-13T01:29:20.404Z,18.75
2018-02-13T01:31:47.999Z,16.77
2018-02-13T01:34:15.434Z,20.33
2018-02-13T01:36:42.898Z,16.37
2018-02-13T01:39:10.339Z,14.77
2018-02-13T01:41:39.967Z,17.65
2018-02-13T01:44:07.412Z,19.77
2018-02-13T01:46:34.999Z,20.12
2018-02-13T01:49:02.432Z,14.00
2018-02-13T01:51:32.460Z,15.85
2018-02-13T01:53:59.905Z,14.70
2018-02-13T01:56:27.337Z,14.98
2018-02-13T01:58:58.759Z,18.85
2018-02-13T02:01:26.198Z,16.08
2018-02-13T02:03:53.663Z,15.77
2018-02-13T02:06:21.107Z,13.25
2018-02-13T02:08:48.659Z,15.50
2018-02-13T02:11:16.156Z,16.85
2018-02-13T02:13:44.357Z,26.42
2018-02-13T02:16:11.825Z,20.65
2018-02-13T02:18:39.263Z,15.65
2018-02-13T02:21:06.764Z,17.02
2018-02-13T02:23:34.204Z,19.62
2018-02-13T02:26:01.651Z,18.62
2018-02-13T02:28:40.152Z,20.85
2018-02-13T02:31:07.607Z,18.92
2018-02-13T02:33:35.071Z,13.75
2018-02-13T02:36:02.512Z,20.08
2018-02-13T02:38:30.739Z,15.27
2018-02-13T02:40:58.178Z,14.85
2018-02-13T02:43:29.655Z,16.42
2018-02-13T02:45:57.315Z,15.23
2018-02-13T02:48:24.805Z,15.35
2018-02-13T02:50:53.041Z,16.10
2018-02-13T02:53:20.491Z,18.35
2018-02-13T02:55:47.967Z,17.50
2018-02-13T02:58:15.415Z,17.12
2018-02-13T03:00:42.860Z,16.30
2018-02-13T03:03:10.420Z,18.95
2018-02-13T03:05:37.873Z,19.58
2018-02-13T03:08:05.312Z,16.30
2018-02-13T03:10:32.914Z,15.15
2018-02-13T03:13:01.125Z,17.92
2018-02-13T03:15:46.236Z,17.45
2018-02-13T03:18:13.688Z,20.58
2018-02-13T03:20:41.284Z,14.43
2018-02-13T03:23:08.724Z,16.77
2018-02-13T03:25:36.197Z,14.18
2018-02-13T03:28:03.643Z,14.07
2018-02-13T03:30:31.109Z,17.37
2018-02-13T03:32:58.552Z,15.18
2018-02-13T03:35:26.144Z,15.65
2018-02-13T03:37:53.590Z,14.63
2018-02-13T03:40:21.030Z,14.70
2018-02-13T03:42:48.495Z,14.55
2018-02-13T03:45:17.201Z,14.75
2018-02-13T03:47:44.642Z,12.55
2018-02-13T03:50:13.036Z,11.82
2018-02-13T03:52:40.983Z,14.57
2018-02-13T03:55:08.420Z,13.27
2018-02-13T03:57:35.868Z,15.60
2018-02-13T04:00:03.319Z,11.00
2018-02-13T04:02:30.789Z,13.77
2018-02-13T04:04:58.219Z,14.52
2018-02-13T04:07:26.443Z,12.45
2018-02-13T04:09:54.149Z,14.15
2018-02-13T04:12:22.567Z,11.05
2018-02-13T04:14:50.017Z,13.27
2018-02-13T04:17:17.451Z,12.00
2018-02-13T04:19:45.685Z,13.55
2018-02-13T04:22:13.140Z,9.13
2018-02-13T04:24:40.633Z,11.68
2018-02-13T04:27:08.041Z,12.93
2018-02-13T04:29:35.472Z,8.63
2018-02-13T04:32:03.080Z,10.55
2018-02-13T04:34:30.520Z,15.15
2018-02-13T04:36:57.984Z,13.05
2018-02-13T04:39:25.428Z,12.90
2018-02-13T04:41:52.887Z,14.07
2018-02-13T04:44:20.332Z,13.38
2018-02-13T04:46:47.913Z,14.40
2018-02-13T04:49:21.236Z,11.25
2018-02-13T04:51:48.731Z,11.10
2018-02-13T04:54:16.168Z,14.00
2018-02-13T04:56:44.426Z,9.35
2018-02-13T04:59:11.855Z,11.60
2018-02-13T05:01:39.376Z,15.93
2018-02-13T05:04:06.811Z,10.35
2018-02-13T05:06:35.247Z,9.57
2018-02-13T05:09:03.486Z,10.57
2018-02-13T05:11:31.704Z,14.00
2018-02-13T05:13:59.160Z,7.82
2018-02-13T05:16:26.602Z,8.55
2018-02-13T05:18:56.633Z,9.75
2018-02-13T05:21:24.076Z,9.50
2018-02-13T05:23:51.511Z,11.95
2018-02-13T05:26:19.008Z,12.60
2018-02-13T05:28:46.463Z,9.05
2018-02-13T05:31:13.912Z,9.90
2018-02-13T05:33:41.390Z,9.85
2018-02-13T05:36:11.747Z,12.07
2018-02-13T05:38:39.957Z,8.52
2018-02-13T05:41:07.744Z,10.85
2018-02-13T05:43:35.209Z,10.27
2018-02-13T05:46:02.661Z,13.00
2018-02-13T05:48:30.178Z,18.73
2018-02-13T05:50:57.646Z,8.98
2018-02-13T05:53:25.118Z,10.68
2018-02-13T05:55:52.551Z,13.02
2018-02-13T05:58:20.361Z,8.32
2018-02-13T06:00:47.807Z,10.50
2018-02-13T06:03:15.263Z,12.37
2018-02-13T06:05:42.709Z,8.32
2018-02-13T06:08:10.371Z,15.43
2018-02-13T06:10:37.817Z,13.93
2018-02-13T06:13:05.248Z,10.85
2018-02-13T06:15:33.647Z,12.60
2018-02-13T06:18:01.079Z,13.48
2018-02-13T06:20:29.307Z,15.38
2018-02-13T06:22:56.800Z,9.93
2018-02-13T06:25:24.217Z,11.70
2018-02-13T06:27:52.008Z,14.82
2018-02-13T06:30:19.452Z,15.85
2018-02-13T06:32:47.668Z,15.20
2018-02-13T06:35:16.083Z,8.77
2018-02-13T06:37:43.539Z,8.95
2018-02-13T06:40:10.977Z,11.55
2018-02-13T06:42:39.223Z,10.10
2018-02-13T06:45:06.656Z,8.27
2018-02-13T06:47:34.104Z,10.23
2018-02-13T06:50:01.608Z,7.18
2018-02-13T06:52:30.132Z,9.13
2018-02-13T06:54:57.563Z,11.57
2018-02-13T06:57:25.764Z,7.32
2018-02-13T06:59:53.223Z,10.60
2018-02-13T07:02:20.693Z,12.15
2018-02-13T07:04:48.187Z,10.18
2018-02-13T07:07:15.635Z,10.15
2018-02-13T07:09:52.089Z,13.07
2018-02-13T07:12:19.519Z,13.57
2018-02-13T07:14:46.965Z,8.43
2018-02-13T07:17:14.411Z,8.88
2018-02-13T07:19:41.909Z,10.07
2018-02-13T07:22:09.385Z,12.07
2018-02-13T07:24:36.823Z,9.43
2018-02-13T07:27:04.409Z,12.43
2018-02-13T07:29:31.916Z,14.93
2018-02-13T07:31:59.352Z,11.25
2018-02-13T07:34:27.584Z,9.05
2018-02-13T07:36:55.027Z,10.90
2018-02-13T07:39:22.486Z,11.00
2018-02-13T07:41:49.971Z,9.55
2018-02-13T07:44:17.432Z,12.40
2018-02-13T07:46:44.876Z,14.23
2018-02-13T07:49:12.343Z,10.50
2018-02-13T07:51:39.788Z,17.50
2018-02-13T07:54:07.298Z,10.88
2018-02-13T07:56:34.751Z,15.38
2018-02-13T07:59:02.328Z,29.70
2018-02-13T08:01:29.796Z,15.77
2018-02-13T08:03:57.246Z,23.17
2018-02-13T08:06:24.732Z,10.40
2018-02-13T08:08:52.342Z,19.30
2018-02-13T08:11:20.585Z,19.20
2018-02-13T08:13:48.152Z,10.40
2018-02-13T08:16:17.556Z,13.52
2018-02-13T08:18:45.017Z,13.43
2018-02-13T08:21:12.456Z,18.83
2018-02-13T08:23:39.942Z,12.68
2018-02-13T08:26:08.192Z,16.10
2018-02-13T08:28:35.637Z,15.00
2018-02-13T08:31:03.292Z,11.10
2018-02-13T08:33:30.740Z,10.60
2018-02-13T08:35:58.233Z,12.60
2018-02-13T08:38:25.685Z,9.80
2018-02-13T08:40:53.120Z,11.25
2018-02-13T08:43:20.676Z,12.00
2018-02-13T08:45:48.134Z,10.65
2018-02-13T08:48:16.353Z,9.73
2018-02-13T08:50:46.804Z,18.50
2018-02-13T08:53:15.031Z,11.85
2018-02-13T08:55:42.480Z,12.63
2018-02-13T08:58:09.995Z,12.57
2018-02-13T09:00:37.438Z,13.20
2018-02-13T09:03:05.659Z,13.32
2018-02-13T09:05:33.094Z,13.75
2018-02-13T09:08:01.666Z,14.38
2018-02-13T09:10:29.872Z,20.73
2018-02-13T09:12:57.456Z,10.65
2018-02-13T09:15:24.891Z,12.48
2018-02-13T09:17:52.351Z,13.43
2018-02-13T09:20:19.843Z,13.40
2018-02-13T09:22:47.237Z,13.10
2018-02-13T09:25:14.672Z,13.32
2018-02-13T09:27:43.021Z,12.18
2018-02-13T09:30:10.452Z,12.82
2018-02-13T09:32:38.113Z,15.52
2018-02-13T09:35:05.553Z,13.10
2018-02-13T09:37:32.991Z,15.82
2018-02-13T09:40:01.204Z,13.45
2018-02-13T09:42:29.816Z,12.10
2018-02-13T09:44:57.243Z,14.85
2018-02-13T09:47:24.703Z,15.85
2018-02-13T09:49:52.167Z,14.35
2018-02-13T09:52:19.596Z,9.10
2018-02-13T09:54:47.069Z,13.05
2018-02-13T09:57:14.528Z,10.02
2018-02-13T09:59:41.963Z,12.15
2018-02-13T10:02:09.480Z,10.40
2018-02-13T10:04:36.909Z,9.95
2018-02-13T10:07:05.152Z,9.88
2018-02-13T10:09:33.383Z,10.75
2018-02-13T10:12:00.820Z,11.48
2018-02-13T10:14:28.284Z,8.55
2018-02-13T10:16:55.725Z,17.98
2018-02-13T10:19:23.164Z,13.27
2018-02-13T10:21:50.713Z,8.82
2018-02-13T10:24:18.918Z,11.25
2018-02-13T10:26:46.514Z,13.75
2018-02-13T10:29:13.940Z,12.25
2018-02-13T10:31:41.395Z,9.98
2018-02-13T10:34:08.836Z,7.30
2018-02-13T10:36:36.378Z,10.80
2018-02-13T10:39:04.587Z,10.65
2018-02-13T10:41:32.048Z,8.48
2018-02-13T10:44:04.354Z,12.75
2018-02-13T10:46:31.880Z,7.53
2018-02-13T10:48:59.693Z,11.95
2018-02-13T10:51:27.121Z,7.82
2018-02-13T10:53:54.592Z,6.75
2018-02-13T10:56:22.106Z,10.68
2018-02-13T10:58:49.537Z,8.43
2018-02-13T11:01:23.387Z,8.82
2018-02-13T11:03:50.834Z,9.48
2018-02-13T11:06:18.292Z,10.02
2018-02-13T11:08:45.728Z,10.48
2018-02-13T11:11:13.301Z,9.50
2018-02-13T11:13:40.729Z,6.22
2018-02-13T11:16:09.079Z,8.15
2018-02-13T11:18:36.507Z,7.32
2018-02-13T11:21:03.994Z,6.43
2018-02-13T11:23:31.424Z,7.85
2018-02-13T11:25:58.860Z,8.30
2018-02-13T11:28:26.432Z,7.65
2018-02-13T11:30:53.851Z,9.90
2018-02-13T11:33:22.064Z,13.57
2018-02-13T11:35:49.652Z,6.28
2018-02-13T11:38:17.092Z,8.95
2018-02-13T11:40:44.752Z,6.12
2018-02-13T11:43:12.182Z,7.93
2018-02-13T11:45:39.610Z,7.87
2018-02-13T11:48:07.080Z,7.97
2018-02-13T11:50:35.277Z,6.40
2018-02-13T11:53:02.709Z,8.80
2018-02-13T11:55:31.012Z,9.75
2018-02-13T11:57:58.520Z,5.78
2018-02-13T12:00:25.977Z,6.87
2018-02-13T12:02:53.408Z,7.90
2018-02-13T12:05:21.088Z,9.45
2018-02-13T12:07:48.520Z,8.98
2018-02-13T12:10:15.948Z,6.03
2018-02-13T12:12:43.685Z,5.80
2018-02-13T12:15:11.139Z,6.57
2018-02-13T12:17:38.571Z,5.90
2018-02-13T12:20:06.051Z,5.30
2018-02-13T12:22:33.488Z,5.40
2018-02-13T12:25:00.978Z,6.53
2018-02-13T12:27:28.418Z,4.32
2018-02-13T12:29:55.841Z,4.32
2018-02-13T12:32:23.300Z,6.32
2018-02-13T12:34:51.510Z,3.87
2018-02-13T12:37:21.174Z,5.40
2018-02-13T12:39:48.620Z,5.30
2018-02-13T12:42:16.335Z,7.07
2018-02-13T12:44:43.761Z,9.60
2018-02-13T12:47:11.964Z,5.28
2018-02-13T12:49:39.424Z,5.65
2018-02-13T12:52:06.845Z,8.13
2018-02-13T12:54:34.365Z,5.30
2018-02-13T12:57:02.564Z,6.18
2018-02-13T12:59:30.024Z,8.40
2018-02-13T13:01:57.461Z,3.35
2018-02-13T13:04:25.684Z,5.07
2018-02-13T13:06:53.129Z,5.55
2018-02-13T13:09:20.729Z,5.40
2018-02-13T13:11:48.169Z,5.62
2018-02-13T13:14:16.998Z,3.97
2018-02-13T13:16:45.216Z,4.00
2018-02-13T13:19:12.959Z,5.55
2018-02-13T13:21:40.417Z,5.70
2018-02-13T13:24:07.867Z,4.40
2018-02-13T13:26:35.528Z,3.92
2018-02-13T13:29:03.740Z,4.85
2018-02-13T13:31:31.193Z,7.00
2018-02-13T13:33:58.629Z,4.97
2018-02-13T13:36:26.056Z,5.72
2018-02-13T13:38:53.516Z,9.77
2018-02-13T13:41:21.801Z,5.25
2018-02-13T13:43:56.002Z,4.28
2018-02-13T13:46:23.448Z,6.35
2018-02-13T13:48:52.520Z,7.00
2018-02-13T13:51:19.961Z,3.95
2018-02-13T13:53:47.424Z,7.28
2018-02-13T13:56:14.860Z,6.80
2018-02-13T13:58:42.389Z,4.30
2018-02-13T14:01:09.854Z,7.05
2018-02-13T14:03:39.020Z,4.35
2018-02-13T14:06:06.463Z,6.10
2018-02-13T14:08:33.952Z,4.55
2018-02-13T14:11:01.411Z,6.03
2018-02-13T14:13:28.853Z,8.00
2018-02-13T14:15:56.703Z,6.07
2018-02-13T14:18:24.127Z,4.87
2018-02-13T14:20:51.566Z,6.00
2018-02-13T14:23:19.792Z,7.20
2018-02-13T14:25:47.258Z,7.95
2018-02-13T14:28:14.664Z,6.65
2018-02-13T14:30:42.116Z,7.12
2018-02-13T14:33:10.322Z,6.93
2018-02-13T14:35:37.814Z,6.43
2018-02-13T14:38:05.271Z,6.90
2018-02-13T14:40:32.700Z,4.68
2018-02-13T14:43:00.123Z,6.10
2018-02-13T14:45:29.775Z,13.68
2018-02-13T14:47:57.214Z,5.68
2018-02-13T14:50:24.884Z,17.95
2018-02-13T14:52:52.329Z,13.00
2018-02-13T14:55:19.780Z,7.90
2018-02-13T14:57:47.217Z,4.87
2018-02-13T15:00:15.444Z,7.95
2018-02-13T15:02:42.905Z,11.98
2018-02-13T15:05:10.345Z,3.40
2018-02-13T15:07:37.928Z,5.70
2018-02-13T15:10:05.360Z,5.18
2018-02-13T15:12:34.061Z,5.43
2018-02-13T15:15:02.465Z,12.68
2018-02-13T15:17:34.392Z,5.00
2018-02-13T15:20:01.817Z,6.50
2018-02-13T15:22:30.095Z,7.47
2018-02-13T15:24:58.285Z,7.57
2018-02-13T15:27:25.756Z,5.97
2018-02-13T15:29:53.184Z,4.12
2018-02-13T15:32:20.616Z,9.73
2018-02-13T15:34:49.784Z,7.43
2018-02-13T15:37:17.218Z,7.65
2018-02-13T15:39:45.631Z,7.35
2018-02-13T15:42:13.103Z,8.88
2018-02-13T15:44:40.945Z,9.05
2018-02-13T15:47:11.253Z,8.93
2018-02-13T15:49:38.681Z,20.85
2018-02-13T15:52:06.908Z,10.45
2018-02-13T15:54:34.336Z,5.90
2018-02-13T15:57:01.920Z,10.73
2018-02-13T15:59:30.313Z,8.27
2018-02-13T16:01:57.808Z,10.00
2018-02-13T16:04:26.016Z,14.38
2018-02-13T16:06:53.445Z,8.90
2018-02-13T16:09:25.519Z,8.55
2018-02-13T16:11:53.462Z,11.80
2018-02-13T16:14:21.780Z,9.73
2018-02-13T16:16:51.722Z,7.87
2018-02-13T16:19:19.149Z,8.70
2018-02-13T16:21:46.717Z,5.57
2018-02-13T16:24:14.208Z,13.23
2018-02-13T16:26:48.608Z,8.05
2018-02-13T16:29:16.823Z,7.00
2018-02-13T16:31:45.278Z,6.55
2018-02-13T16:34:12.805Z,8.20
2018-02-13T16:36:40.283Z,6.37
2018-02-13T16:39:08.688Z,5.78
2018-02-13T16:41:36.488Z,4.95
2018-02-13T16:44:04.688Z,5.78
2018-02-13T16:46:32.125Z,29.87
2018-02-13T16:49:07.386Z,7.65
2018-02-13T16:51:35.576Z,5.10
2018-02-13T16:54:03.003Z,6.03
2018-02-13T16:56:30.459Z,7.62
2018-02-13T16:58:59.829Z,6.18
2018-02-13T17:01:27.309Z,6.45
2018-02-13T17:03:55.568Z,6.65
2018-02-13T17:06:24.740Z,6.50
2018-02-13T17:08:52.325Z,5.93
2018-02-13T17:11:20.555Z,5.65
2018-02-13T17:13:48.009Z,8.20
2018-02-13T17:16:15.495Z,4.93
2018-02-13T17:18:42.952Z,5.50
2018-02-13T17:21:10.400Z,8.88
2018-02-13T17:23:37.826Z,6.32
2018-02-13T17:26:15.408Z,5.45
2018-02-13T17:28:43.600Z,5.53
2018-02-13T17:31:11.283Z,6.25
2018-02-13T17:33:38.717Z,8.52
2018-02-13T17:36:06.170Z,8.68
2018-02-13T17:38:33.656Z,6.03
2018-02-13T17:41:01.303Z,9.52
2018-02-13T17:43:28.804Z,11.65
2018-02-13T17:45:56.537Z,9.55
2018-02-13T17:48:27.684Z,10.77
2018-02-13T17:50:59.065Z,10.70
2018-02-13T17:53:26.538Z,16.95
2018-02-13T17:55:53.957Z,10.68
2018-02-13T17:58:21.439Z,26.37
2018-02-13T18:00:48.872Z,22.52
2018-02-13T18:03:16.889Z,13.13
2018-02-13T18:05:45.180Z,9.18
2018-02-13T18:08:14.912Z,9.32
2018-02-13T18:10:42.389Z,9.13
2018-02-13T18:13:09.828Z,7.78
2018-02-13T18:15:37.265Z,10.48
2018-02-13T18:18:06.692Z,7.50
2018-02-13T18:20:34.130Z,9.13
2018-02-13T18:23:01.608Z,8.85
2018-02-13T18:25:29.041Z,8.35
2018-02-13T18:27:56.507Z,9.05
2018-02-13T18:30:23.945Z,8.40
2018-02-13T18:32:51.386Z,9.85
2018-02-13T18:35:20.225Z,8.35
2018-02-13T18:37:49.349Z,9.27
2018-02-13T18:40:16.775Z,9.70
2018-02-13T18:42:44.291Z,7.93
2018-02-13T18:45:12.567Z,8.75
2018-02-13T18:47:39.973Z,10.25
2018-02-13T18:50:07.413Z,10.43
2018-02-13T18:55:09.096Z,8.80
2018-02-13T18:57:36.512Z,8.43
2018-02-13T19:00:04.731Z,7.60
2018-02-13T19:02:32.191Z,11.60
2018-02-13T19:04:59.625Z,9.23
2018-02-13T19:07:27.213Z,8.65
2018-02-13T19:09:54.661Z,10.05
2018-02-13T19:12:22.108Z,7.60
2018-02-13T19:14:49.564Z,7.35
2018-02-13T19:17:17.020Z,8.27
2018-02-13T19:19:44.452Z,8.40
2018-02-13T19:22:12.736Z,8.18
2018-02-13T19:24:40.294Z,8.80
2018-02-13T19:27:07.728Z,8.63
2018-02-13T19:29:35.147Z,7.30
2018-02-13T19:32:02.759Z,8.18
2018-02-13T19:34:30.964Z,7.82
2018-02-13T19:36:58.389Z,11.40
2018-02-13T19:39:26.914Z,9.88
2018-02-13T19:41:54.347Z,8.25
2018-02-13T19:44:21.772Z,7.03
2018-02-13T19:46:49.239Z,7.28
2018-02-13T19:49:17.441Z,8.48
2018-02-13T19:51:45.073Z,8.05
2018-02-13T19:54:13.276Z,8.05
2018-02-13T19:56:40.712Z,10.55
2018-02-13T19:59:09.905Z,9.23
2018-02-13T20:01:38.148Z,10.57
2018-02-13T20:04:05.597Z,11.48
2018-02-13T20:06:33.033Z,7.97
2018-02-13T20:09:00.589Z,10.23
2018-02-13T20:11:28.758Z,8.93
2018-02-13T20:13:56.228Z,11.10
2018-02-13T20:16:23.660Z,9.00
2018-02-13T20:18:51.167Z,7.80
2018-02-13T20:21:18.643Z,9.25
2018-02-13T20:23:46.073Z,8.52
2018-02-13T20:26:13.532Z,15.48
2018-02-13T20:28:40.964Z,9.10
2018-02-13T20:31:08.421Z,8.32
2018-02-13T20:33:35.848Z,6.90
2018-02-13T20:36:04.157Z,10.65
2018-02-13T20:38:42.496Z,8.00
2018-02-13T20:41:11.397Z,9.98
2018-02-13T20:43:38.856Z,9.18
2018-02-13T20:46:06.288Z,8.10
2018-02-13T20:48:33.752Z,7.20
2018-02-13T20:51:01.197Z,6.40
2018-02-13T20:53:29.700Z,12.77
2018-02-13T20:55:57.139Z,7.12
2018-02-13T20:58:24.600Z,8.45
2018-02-13T21:00:52.047Z,6.85
2018-02-13T21:03:19.538Z,10.02
2018-02-13T21:05:46.965Z,9.50
2018-02-13T21:08:14.407Z,9.20
2018-02-13T21:10:41.902Z,9.65
2018-02-13T21:13:09.335Z,9.68
2018-02-13T21:15:36.803Z,7.57
2018-02-13T21:18:05.025Z,6.95
2018-02-13T21:20:32.456Z,8.32
2018-02-13T21:22:59.940Z,7.93
2018-02-13T21:25:28.153Z,26.67
2018-02-13T21:27:55.593Z,26.98
2018-02-13T21:30:28.311Z,19.20
2018-02-13T21:32:55.775Z,16.60
2018-02-13T21:35:23.209Z,7.12
2018-02-13T21:37:50.669Z,7.45
2018-02-13T21:40:18.105Z,8.48
2018-02-13T21:42:45.671Z,12.20
2018-02-13T21:45:13.100Z,7.95
2018-02-13T21:47:41.332Z,9.05
2018-02-13T21:50:26.772Z,13.85
2018-02-13T21:52:55.022Z,9.32
2018-02-13T21:55:34.528Z,8.95
2018-02-13T21:58:02.151Z,13.43
2018-02-13T22:00:30.349Z,8.77
2018-02-13T22:02:57.782Z,9.68
2018-02-13T22:05:26.045Z,11.75
2018-02-13T22:07:59.123Z,12.88
2018-02-13T22:10:30.007Z,16.00
2018-02-13T22:12:58.209Z,12.75
2018-02-13T22:15:37.722Z,12.50
2018-02-13T22:18:05.161Z,16.58
2018-02-13T22:20:32.675Z,51.28
2018-02-13T22:23:00.096Z,16.87
2018-02-13T22:25:27.540Z,12.30
2018-02-13T22:27:54.997Z,14.65
2018-02-13T22:30:28.561Z,22.70
2018-02-13T22:32:56.136Z,27.80
2018-02-13T22:35:24.341Z,18.62
2018-02-13T22:37:51.805Z,11.15
2018-02-13T22:40:19.261Z,13.13
2018-02-13T22:42:46.792Z,10.35
2018-02-13T22:45:14.995Z,10.70
2018-02-13T22:47:42.436Z,9.90
2018-02-13T22:50:10.021Z,9.75
2018-02-13T22:52:37.477Z,7.30
2018-02-13T22:55:04.922Z,23.25
2018-02-13T22:57:32.390Z,10.90
2018-02-13T23:02:52.452Z,6.72
2018-02-13T23:05:20.819Z,7.57
2018-02-13T23:07:48.261Z,10.43
2018-02-13T23:10:15.783Z,7.55
2018-02-13T23:12:44.013Z,7.70
2018-02-13T23:15:11.440Z,8.13
2018-02-13T23:17:38.887Z,9.68
2018-02-13T23:20:06.320Z,9.15
2018-02-13T23:22:33.900Z,7.47
2018-02-13T23:25:01.332Z,9.25
2018-02-13T23:27:28.765Z,10.85
2018-02-13T23:29:56.988Z,8.40
2018-02-13T23:32:24.452Z,10.13
2018-02-13T23:34:51.952Z,11.27
2018-02-13T23:37:19.381Z,8.57
2018-02-13T23:39:46.893Z,7.97
2018-02-13T23:42:14.329Z,9.27
2018-02-13T23:44:42.683Z,9.32
2018-02-13T23:47:10.135Z,9.38
2018-02-13T23:49:37.584Z,9.95
2018-02-13T23:52:05.025Z,15.82
2018-02-13T23:54:32.453Z,8.05
2018-02-13T23:57:00.696Z,7.43
2018-02-13T23:59:29.068Z,10.25
